Aviation Digital Data Service (ADDS)

Output produced by METARs form (1708 UTC 24 April 2017)
found at http://www.aviationweather.gov/adds/metars/
 
FOOG 241700Z 20010KT 9999 FEW011 FEW020CB 30/25 Q1009
TAF FOOG 240500Z 2406/2506 18008KT 9999 SCT011 FEW020CB BKN030 
     TEMPO 2413/2417 TS 
     PROB30 
     TEMPO 2420/2503 3500 TSRA BKN008 FEW018CB OVC030
       
FOOL 241700Z 24007KT 210V270 9999 FEW015 FEW018CB 29/26 Q1008 NOSIG
TAF FOOL 240500Z 2406/2512 16008KT 9999 SCT011 FEW020CB BKN030 
     TEMPO 2412/2416 TS 
     PROB30 
     TEMPO 2419/2502 2500 TSRA BKN006 FEW016CB OVC026
       
FOON 241700Z /////KT 9999 SCT010 26/24 Q1012
FOON 241700Z /////KT 9999 SCT010 26/24 Q1012
FOOG 241700Z 20010KT 9999 FEW011 FEW020CB 30/25 Q1009
TAF FOOG 240500Z 2406/2506 18008KT 9999 SCT011 FEW020CB BKN030 
     TEMPO 2413/2417 TS 
     PROB30 
     TEMPO 2420/2503 3500 TSRA BKN008 FEW018CB OVC030
       
FOOL 241700Z 24007KT 210V270 9999 FEW015 FEW018CB 29/26 Q1008 NOSIG
TAF FOOL 240500Z 2406/2512 16008KT 9999 SCT011 FEW020CB BKN030 
     TEMPO 2412/2416 TS 
     PROB30 
     TEMPO 2419/2502 2500 TSRA BKN006 FEW016CB OVC026
       
FOON 241700Z /////KT 9999 SCT010 26/24 Q1012
FOOL 241700Z 24007KT 210V270 9999 FEW015 FEW018CB 29/26 Q1008 NOSIG
TAF FOOL 240500Z 2406/2512 16008KT 9999 SCT011 FEW020CB BKN030 
     TEMPO 2412/2416 TS 
     PROB30 
     TEMPO 2419/2502 2500 TSRA BKN006 FEW016CB OVC026
       
FOOG 241700Z 20010KT 9999 FEW011 FEW020CB 30/25 Q1009
TAF FOOG 240500Z 2406/2506 18008KT 9999 SCT011 FEW020CB BKN030 
     TEMPO 2413/2417 TS 
     PROB30 
     TEMPO 2420/2503 3500 TSRA BKN008 FEW018CB OVC030